Time;durP1;ratioP1;P1;durP2;ratioP2;P2;SDS_P1;SDS_P2;PMS_P1;PMS_P2;Temp;Humidity;BMP_temperature;BMP_pressure;BME280_temperature;BME280_humidity;BME280_pressure;Samples;Min_cycle;Max_cycle;Signal;HPM_P1;HPM_P2
2022/08/02 00:01:43;;;;;;;3.90;2.58;;;;;;;;;;5028581;28;20641;-77
2022/08/02 00:04:09;;;;;;;3.85;2.00;;;;;;;;;;5025268;28;20029;-76
2022/08/02 00:06:36;;;;;;;4.55;2.10;;;;;;;;;;5027078;28;20013;-77
2022/08/02 00:09:03;;;;;;;5.25;2.45;;;;;;;;;;5026124;28;20139;-76
2022/08/02 00:11:29;;;;;;;5.82;2.47;;;;;;;;;;5018817;28;20125;-77
2022/08/02 00:13:55;;;;;;;2.75;2.30;;;;;;;;;;5025531;28;20026;-77
2022/08/02 00:16:21;;;;;;;4.25;2.55;;;;;;;;;;5026022;28;20030;-76
2022/08/02 00:18:47;;;;;;;5.18;2.60;;;;;;;;;;5019289;28;20040;-76
2022/08/02 00:21:13;;;;;;;6.00;2.50;;;;;;;;;;5026718;28;20435;-75
2022/08/02 00:23:39;;;;;;;5.57;2.20;;;;;;;;;;5029118;28;20096;-77
2022/08/02 00:26:05;;;;;;;3.83;2.35;;;;;;;;;;5030133;28;20017;-78
2022/08/02 00:28:32;;;;;;;2.83;2.10;;;;;;;;;;5023634;28;20030;-76
2022/08/02 00:30:58;;;;;;;7.68;2.45;;;;;;;;;;5023968;28;20036;-76
2022/08/02 00:33:25;;;;;;;6.75;2.35;;;;;;;;;;5025969;28;20048;-77
2022/08/02 00:35:51;;;;;;;4.03;2.15;;;;;;;;;;5022878;28;20025;-77
2022/08/02 00:38:17;;;;;;;3.78;2.20;;;;;;;;;;5028341;28;20572;-77
2022/08/02 00:40:50;;;;;;;4.28;2.70;;;;;;;;;;5028529;28;20021;-78
2022/08/02 00:43:16;;;;;;;3.65;2.38;;;;;;;;;;5025746;28;20037;-76
2022/08/02 00:45:42;;;;;;;4.90;2.30;;;;;;;;;;5028844;28;20014;-77
2022/08/02 00:48:09;;;;;;;5.97;2.00;;;;;;;;;;5031676;28;20072;-77
2022/08/02 00:50:36;;;;;;;4.43;2.15;;;;;;;;;;5027484;28;20037;-76
2022/08/02 00:53:02;;;;;;;3.47;2.45;;;;;;;;;;5026246;28;20033;-77
2022/08/02 00:55:28;;;;;;;4.50;2.30;;;;;;;;;;5028408;28;20549;-76
2022/08/02 00:57:55;;;;;;;4.80;2.60;;;;;;;;;;5027059;28;20086;-77
2022/08/02 01:00:21;;;;;;;3.55;3.03;;;;;;;;;;5023345;28;20638;-77
2022/08/02 01:02:47;;;;;;;3.00;2.25;;;;;;;;;;5021365;28;20068;-77
2022/08/02 01:05:13;;;;;;;6.72;2.97;;;;;;;;;;5028706;28;20049;-76
2022/08/02 01:07:39;;;;;;;2.97;2.17;;;;;;;;;;5027077;28;20029;-75
2022/08/02 01:10:06;;;;;;;4.82;2.53;;;;;;;;;;5023483;28;20025;-76
2022/08/02 01:12:32;;;;;;;5.50;3.30;;;;;;;;;;5027446;28;20097;-76
2022/08/02 01:15:01;;;;;;;6.03;2.40;;;;;;;;;;5022924;28;20026;-76
2022/08/02 01:17:27;;;;;;;2.90;2.60;;;;;;;;;;5027575;28;20034;-77
2022/08/02 01:20:07;;;;;;;4.90;2.45;;;;;;;;;;5024809;28;20503;-78
2022/08/02 01:22:47;;;;;;;6.53;2.35;;;;;;;;;;5021927;28;20067;-77
2022/08/02 01:25:39;;;;;;;5.97;2.25;;;;;;;;;;5020532;28;20387;-76
2022/08/02 01:28:15;;;;;;;6.30;2.60;;;;;;;;;;4995516;28;20057;-75
2022/08/02 01:30:43;;;;;;;5.07;2.13;;;;;;;;;;5021475;28;20025;-77
2022/08/02 01:33:12;;;;;;;4.68;2.38;;;;;;;;;;5026888;28;20024;-77
2022/08/02 01:35:42;;;;;;;3.30;2.10;;;;;;;;;;5029589;28;20500;-76
2022/08/02 01:38:11;;;;;;;2.90;1.98;;;;;;;;;;5026869;28;20040;-76
2022/08/02 01:40:39;;;;;;;3.85;2.40;;;;;;;;;;5028265;28;20573;-77
2022/08/02 01:43:06;;;;;;;5.00;2.50;;;;;;;;;;5027898;28;20460;-78
2022/08/02 01:45:33;;;;;;;3.15;2.25;;;;;;;;;;5022502;28;20025;-76
2022/08/02 01:48:00;;;;;;;5.95;2.63;;;;;;;;;;5028856;28;20028;-77
2022/08/02 01:50:28;;;;;;;4.40;2.60;;;;;;;;;;5020701;28;20615;-76
2022/08/02 01:52:56;;;;;;;2.97;2.15;;;;;;;;;;5027155;28;20434;-76
2022/08/02 01:55:23;;;;;;;3.55;1.85;;;;;;;;;;5025236;28;20384;-77
2022/08/02 01:57:50;;;;;;;3.58;2.20;;;;;;;;;;5026781;28;20324;-76
2022/08/02 02:00:17;;;;;;;3.30;1.88;;;;;;;;;;5028091;28;20109;-76
2022/08/02 02:02:46;;;;;;;3.05;2.40;;;;;;;;;;5027418;28;20383;-77
2022/08/02 02:05:14;;;;;;;4.28;1.98;;;;;;;;;;5018020;28;20540;-77
2022/08/02 02:07:41;;;;;;;4.43;2.00;;;;;;;;;;5028984;28;20486;-76
2022/08/02 02:10:08;;;;;;;3.70;2.25;;;;;;;;;;5023578;28;20037;-78
2022/08/02 02:12:36;;;;;;;2.78;2.08;;;;;;;;;;5026717;28;20125;-77
2022/08/02 02:15:02;;;;;;;3.50;1.95;;;;;;;;;;5026378;28;20033;-76
2022/08/02 02:17:30;;;;;;;3.65;1.77;;;;;;;;;;5029806;28;20029;-76
2022/08/02 02:19:58;;;;;;;3.08;2.00;;;;;;;;;;5027118;28;20025;-77
2022/08/02 02:22:24;;;;;;;2.35;1.80;;;;;;;;;;5029333;28;20037;-76
2022/08/02 02:24:50;;;;;;;3.15;2.10;;;;;;;;;;5029317;28;20026;-76
2022/08/02 02:27:17;;;;;;;2.10;1.80;;;;;;;;;;5022975;28;20033;-77
2022/08/02 02:29:44;;;;;;;2.17;1.80;;;;;;;;;;5027854;28;20109;-77
2022/08/02 02:32:11;;;;;;;4.78;1.92;;;;;;;;;;5027520;28;20052;-77
2022/08/02 02:34:40;;;;;;;3.50;1.92;;;;;;;;;;5027235;28;20083;-77
2022/08/02 02:37:08;;;;;;;3.45;1.83;;;;;;;;;;5029059;28;20033;-77
2022/08/02 02:39:35;;;;;;;1.83;1.63;;;;;;;;;;5018321;28;20032;-77
2022/08/02 02:42:02;;;;;;;3.40;1.60;;;;;;;;;;5026781;28;20411;-77
2022/08/02 02:44:30;;;;;;;4.18;1.70;;;;;;;;;;5026145;28;20029;-76
2022/08/02 02:46:57;;;;;;;2.50;1.85;;;;;;;;;;5027557;28;20017;-77
2022/08/02 02:49:23;;;;;;;2.80;1.80;;;;;;;;;;5028246;28;20064;-77
2022/08/02 02:51:50;;;;;;;2.55;1.75;;;;;;;;;;5022867;28;20423;-76
2022/08/02 02:54:17;;;;;;;4.95;2.05;;;;;;;;;;5022841;28;20025;-77
2022/08/02 02:56:44;;;;;;;2.28;1.48;;;;;;;;;;5020541;28;20124;-76
2022/08/02 02:59:10;;;;;;;3.30;1.85;;;;;;;;;;5026084;28;20056;-76
2022/08/02 03:01:36;;;;;;;4.22;1.90;;;;;;;;;;5023765;28;20058;-76
2022/08/02 03:04:05;;;;;;;3.15;2.05;;;;;;;;;;5021969;28;20187;-76
2022/08/02 03:06:31;;;;;;;2.45;2.13;;;;;;;;;;5024186;28;20025;-76
2022/08/02 03:08:57;;;;;;;4.50;1.65;;;;;;;;;;5024512;28;20032;-76
2022/08/02 03:11:28;;;;;;;6.43;1.88;;;;;;;;;;5023293;28;20025;-77
2022/08/02 03:13:55;;;;;;;2.20;1.60;;;;;;;;;;5029245;28;20099;-76
2022/08/02 03:16:21;;;;;;;3.72;1.70;;;;;;;;;;5024679;28;20062;-76
2022/08/02 03:18:47;;;;;;;2.72;1.73;;;;;;;;;;5023440;28;20026;-77
2022/08/02 03:21:13;;;;;;;2.28;1.60;;;;;;;;;;5028940;28;20032;-77
2022/08/02 03:23:41;;;;;;;3.58;1.70;;;;;;;;;;5024565;28;20099;-76
2022/08/02 03:26:08;;;;;;;4.25;2.30;;;;;;;;;;5027614;28;20009;-76
2022/08/02 03:28:34;;;;;;;3.90;1.70;;;;;;;;;;5021996;28;20056;-76
2022/08/02 03:31:00;;;;;;;2.95;1.70;;;;;;;;;;5020318;28;20349;-76
2022/08/02 03:33:27;;;;;;;1.50;1.40;;;;;;;;;;5027124;28;20029;-77
2022/08/02 03:35:55;;;;;;;2.65;1.77;;;;;;;;;;5019764;28;20037;-78
2022/08/02 03:38:22;;;;;;;4.75;1.95;;;;;;;;;;5022429;28;20104;-77
2022/08/02 03:40:48;;;;;;;5.47;2.83;;;;;;;;;;5025663;28;20033;-77
2022/08/02 03:43:15;;;;;;;2.10;1.52;;;;;;;;;;5024728;28;20022;-76
2022/08/02 03:45:45;;;;;;;2.92;1.80;;;;;;;;;;5026235;28;20021;-77
2022/08/02 03:48:12;;;;;;;2.53;1.90;;;;;;;;;;5031004;28;20017;-76
2022/08/02 03:50:39;;;;;;;2.38;1.73;;;;;;;;;;5018217;28;20099;-75
2022/08/02 03:53:06;;;;;;;2.40;1.83;;;;;;;;;;5026509;28;20022;-76
2022/08/02 03:55:32;;;;;;;2.08;1.70;;;;;;;;;;5022571;28;20384;-76
2022/08/02 03:57:58;;;;;;;2.42;1.80;;;;;;;;;;5024897;28;20029;-77
2022/08/02 04:00:25;;;;;;;1.77;1.63;;;;;;;;;;5020593;28;20514;-76
2022/08/02 04:02:51;;;;;;;2.40;1.77;;;;;;;;;;5027379;28;20021;-76
2022/08/02 04:05:17;;;;;;;3.08;2.05;;;;;;;;;;5026469;28;20066;-77
2022/08/02 04:07:44;;;;;;;2.67;1.60;;;;;;;;;;5027828;28;20021;-77
2022/08/02 04:10:10;;;;;;;2.72;1.80;;;;;;;;;;5030176;28;20053;-77
2022/08/02 04:12:37;;;;;;;2.08;1.70;;;;;;;;;;5023365;28;20037;-77
2022/08/02 04:15:06;;;;;;;3.03;2.30;;;;;;;;;;5026714;28;20021;-77
2022/08/02 04:17:33;;;;;;;3.47;1.50;;;;;;;;;;5021195;28;20025;-76
2022/08/02 04:20:12;;;;;;;4.18;1.80;;;;;;;;;;5023979;28;20375;-76
2022/08/02 04:23:00;;;;;;;4.88;1.60;;;;;;;;;;5022198;28;20112;-77
2022/08/02 04:25:26;;;;;;;2.00;1.48;;;;;;;;;;5026499;28;20030;-76
2022/08/02 04:27:53;;;;;;;3.20;1.80;;;;;;;;;;5029563;28;20160;-77
2022/08/02 04:30:20;;;;;;;3.17;1.35;;;;;;;;;;5024679;28;20025;-78
2022/08/02 04:32:46;;;;;;;4.25;1.50;;;;;;;;;;5027384;28;20026;-77
2022/08/02 04:35:13;;;;;;;2.15;1.50;;;;;;;;;;5024600;28;20137;-77
2022/08/02 04:37:39;;;;;;;1.52;1.33;;;;;;;;;;5025196;28;20494;-77
2022/08/02 04:40:09;;;;;;;2.33;1.60;;;;;;;;;;5027151;28;20040;-78
2022/08/02 04:42:35;;;;;;;1.90;1.60;;;;;;;;;;5024347;28;20009;-76
2022/08/02 04:45:02;;;;;;;2.22;1.48;;;;;;;;;;5028007;28;20505;-77
2022/08/02 04:47:28;;;;;;;1.42;1.30;;;;;;;;;;5027712;28;20034;-76
2022/08/02 04:49:54;;;;;;;3.22;1.63;;;;;;;;;;5028414;28;20037;-77
2022/08/02 04:52:20;;;;;;;1.80;1.70;;;;;;;;;;5025352;28;20021;-77
2022/08/02 04:54:46;;;;;;;1.33;1.25;;;;;;;;;;5026475;28;20112;-77
2022/08/02 04:59:57;;;;;;;2.58;1.38;;;;;;;;;;5023042;28;20168;-77
2022/08/02 05:02:23;;;;;;;1.90;1.67;;;;;;;;;;5025764;28;20387;-78
2022/08/02 05:04:50;;;;;;;2.20;1.48;;;;;;;;;;5022184;28;20029;-76
2022/08/02 05:07:16;;;;;;;1.52;1.42;;;;;;;;;;5031211;28;20127;-76
2022/08/02 05:09:42;;;;;;;1.50;1.40;;;;;;;;;;5031450;28;20025;-76
2022/08/02 05:12:08;;;;;;;2.25;1.60;;;;;;;;;;5025061;28;20111;-77
2022/08/02 05:14:35;;;;;;;1.50;1.30;;;;;;;;;;5031357;28;20077;-77
2022/08/02 05:17:01;;;;;;;2.38;1.50;;;;;;;;;;5023833;28;20584;-77
2022/08/02 05:19:27;;;;;;;1.40;1.30;;;;;;;;;;5030286;28;20029;-78
2022/08/02 05:21:53;;;;;;;1.10;1.10;;;;;;;;;;5027879;28;20114;-77
2022/08/02 05:24:19;;;;;;;1.00;1.00;;;;;;;;;;5030846;28;20021;-76
2022/08/02 05:26:45;;;;;;;2.28;1.42;;;;;;;;;;5029084;28;20025;-78
2022/08/02 05:29:11;;;;;;;1.38;1.27;;;;;;;;;;5026026;28;20109;-77
2022/08/02 05:31:37;;;;;;;1.42;1.33;;;;;;;;;;5024735;28;20025;-76
2022/08/02 05:34:03;;;;;;;1.48;1.38;;;;;;;;;;5029460;28;20026;-78
2022/08/02 05:36:29;;;;;;;2.63;1.40;;;;;;;;;;5032325;28;20365;-77
2022/08/02 05:38:56;;;;;;;1.25;1.20;;;;;;;;;;5024785;28;20064;-77
2022/08/02 05:41:22;;;;;;;2.33;1.40;;;;;;;;;;5028516;28;20025;-77
2022/08/02 05:43:48;;;;;;;1.60;1.30;;;;;;;;;;5029542;28;20029;-77
2022/08/02 05:46:14;;;;;;;2.67;1.30;;;;;;;;;;5027558;28;20056;-77
2022/08/02 05:48:40;;;;;;;1.33;1.23;;;;;;;;;;5027784;28;20454;-76
2022/08/02 05:51:10;;;;;;;1.38;1.27;;;;;;;;;;5030135;28;20158;-77
2022/08/02 05:53:40;;;;;;;1.75;1.65;;;;;;;;;;5026609;28;20372;-76
2022/08/02 05:56:19;;;;;;;2.38;1.40;;;;;;;;;;5030016;28;20070;-76
2022/08/02 05:59:00;;;;;;;2.13;1.42;;;;;;;;;;5022228;28;20036;-77
2022/08/02 06:01:38;;;;;;;2.42;2.17;;;;;;;;;;5028278;28;20022;-76
2022/08/02 06:04:16;;;;;;;2.95;1.90;;;;;;;;;;5025049;28;20025;-76
2022/08/02 06:06:44;;;;;;;2.13;1.42;;;;;;;;;;5029733;28;20034;-77
2022/08/02 06:09:14;;;;;;;2.75;1.30;;;;;;;;;;5023924;28;20072;-77
2022/08/02 06:11:44;;;;;;;3.28;1.48;;;;;;;;;;5021676;28;20021;-77
2022/08/02 06:14:12;;;;;;;1.13;1.08;;;;;;;;;;5028822;28;20044;-76
2022/08/02 06:16:38;;;;;;;3.13;1.40;;;;;;;;;;5028190;28;20567;-76
2022/08/02 06:19:05;;;;;;;1.35;1.25;;;;;;;;;;5021295;28;20034;-77
2022/08/02 06:21:31;;;;;;;1.55;1.20;;;;;;;;;;5031749;28;20052;-76
2022/08/02 06:23:58;;;;;;;1.70;1.52;;;;;;;;;;5022013;28;20097;-76
2022/08/02 06:26:25;;;;;;;1.40;1.30;;;;;;;;;;5028899;28;20026;-77
2022/08/02 06:28:52;;;;;;;1.35;1.25;;;;;;;;;;5029814;28;20021;-77
2022/08/02 06:31:18;;;;;;;3.03;1.45;;;;;;;;;;5028934;28;20025;-76
2022/08/02 06:33:44;;;;;;;1.10;1.10;;;;;;;;;;5026333;28;20506;-77
2022/08/02 06:36:17;;;;;;;1.88;1.40;;;;;;;;;;5028262;28;20423;-77
2022/08/02 06:38:46;;;;;;;3.05;1.48;;;;;;;;;;5021832;28;20488;-76
2022/08/02 06:41:13;;;;;;;2.88;1.30;;;;;;;;;;5021701;28;20034;-77
2022/08/02 06:43:52;;;;;;;1.60;1.50;;;;;;;;;;5028256;28;20527;-76
2022/08/02 06:46:19;;;;;;;2.85;1.60;;;;;;;;;;5020311;28;20025;-77
2022/08/02 06:48:45;;;;;;;4.38;1.63;;;;;;;;;;5024158;28;20038;-76
2022/08/02 06:51:12;;;;;;;2.58;1.38;;;;;;;;;;5025278;28;20109;-76
2022/08/02 06:53:38;;;;;;;1.60;1.48;;;;;;;;;;5028347;28;20084;-76
2022/08/02 06:56:04;;;;;;;2.58;1.58;;;;;;;;;;5031354;28;20086;-76
2022/08/02 06:58:30;;;;;;;3.63;1.80;;;;;;;;;;5025552;28;20435;-76
2022/08/02 07:00:57;;;;;;;1.77;1.10;;;;;;;;;;5025873;28;20086;-76
2022/08/02 07:03:24;;;;;;;4.05;1.65;;;;;;;;;;5023777;28;20021;-77
2022/08/02 07:05:50;;;;;;;1.42;1.33;;;;;;;;;;5031240;28;20033;-77
2022/08/02 07:08:17;;;;;;;1.30;1.20;;;;;;;;;;5027046;28;20557;-77
2022/08/02 07:10:43;;;;;;;1.83;1.33;;;;;;;;;;5031341;28;20033;-77
2022/08/02 07:13:09;;;;;;;1.77;1.40;;;;;;;;;;5025879;28;20032;-76
2022/08/02 07:15:36;;;;;;;1.30;1.20;;;;;;;;;;5021052;28;20120;-76
2022/08/02 07:18:03;;;;;;;1.20;1.20;;;;;;;;;;5023376;28;20036;-77
2022/08/02 07:20:29;;;;;;;1.33;1.20;;;;;;;;;;5031618;28;20079;-76
2022/08/02 07:22:55;;;;;;;1.73;1.55;;;;;;;;;;5031664;28;20030;-76
2022/08/02 07:25:21;;;;;;;1.58;1.23;;;;;;;;;;5031624;28;20025;-76
2022/08/02 07:27:47;;;;;;;1.77;1.20;;;;;;;;;;5026364;28;20026;-77
2022/08/02 07:30:13;;;;;;;1.40;1.30;;;;;;;;;;5029207;28;20411;-76
2022/08/02 07:32:41;;;;;;;1.20;1.05;;;;;;;;;;5032540;28;20021;-74
2022/08/02 07:35:08;;;;;;;1.02;1.02;;;;;;;;;;5029119;28;20149;-75
2022/08/02 07:37:34;;;;;;;1.80;1.27;;;;;;;;;;5028433;28;20076;-76
2022/08/02 07:40:01;;;;;;;1.27;1.25;;;;;;;;;;5032637;28;20120;-76
2022/08/02 07:42:29;;;;;;;1.38;1.27;;;;;;;;;;5027678;28;20060;-74
2022/08/02 07:44:56;;;;;;;1.00;1.00;;;;;;;;;;5027676;28;20483;-75
2022/08/02 07:47:22;;;;;;;1.25;1.15;;;;;;;;;;5029341;28;20178;-75
2022/08/02 07:49:48;;;;;;;1.33;1.23;;;;;;;;;;5030186;28;20192;-78
2022/08/02 07:52:14;;;;;;;1.30;1.20;;;;;;;;;;5031303;28;20032;-75
2022/08/02 07:54:40;;;;;;;2.83;1.50;;;;;;;;;;5034030;28;20523;-76
2022/08/02 07:57:06;;;;;;;2.53;1.50;;;;;;;;;;5034833;28;20044;-76
2022/08/02 07:59:32;;;;;;;3.90;2.35;;;;;;;;;;5028097;28;20040;-77
2022/08/02 08:01:58;;;;;;;2.00;1.40;;;;;;;;;;5031133;28;20037;-76
2022/08/02 08:04:25;;;;;;;2.88;1.65;;;;;;;;;;5029044;28;20132;-76
2022/08/02 08:06:52;;;;;;;7.78;1.98;;;;;;;;;;5034785;28;20021;-75
2022/08/02 08:09:19;;;;;;;1.33;1.23;;;;;;;;;;5034450;28;20231;-77
2022/08/02 08:11:46;;;;;;;2.92;1.85;;;;;;;;;;5035766;28;20040;-76
2022/08/02 08:14:12;;;;;;;1.50;1.40;;;;;;;;;;5036092;28;20033;-77
2022/08/02 08:16:38;;;;;;;1.95;1.65;;;;;;;;;;5034684;28;20044;-76
2022/08/02 08:19:04;;;;;;;1.70;1.50;;;;;;;;;;5032398;28;20044;-76
2022/08/02 08:21:30;;;;;;;2.70;1.50;;;;;;;;;;5030496;28;20025;-76
2022/08/02 08:23:56;;;;;;;2.17;1.80;;;;;;;;;;5031577;28;20017;-75
2022/08/02 08:26:24;;;;;;;1.60;1.50;;;;;;;;;;5035397;28;20029;-76
2022/08/02 08:28:51;;;;;;;1.90;1.55;;;;;;;;;;5020651;28;20527;-76
2022/08/02 08:31:18;;;;;;;1.73;1.60;;;;;;;;;;5029208;28;20132;-77
2022/08/02 08:33:46;;;;;;;2.25;1.70;;;;;;;;;;5032529;28;20029;-78
2022/08/02 08:36:12;;;;;;;1.67;1.42;;;;;;;;;;5033358;28;20048;-78
2022/08/02 08:38:38;;;;;;;2.45;2.25;;;;;;;;;;5029164;28;20040;-75
2022/08/02 08:41:04;;;;;;;1.63;1.52;;;;;;;;;;5028465;28;20533;-78
2022/08/02 08:43:31;;;;;;;1.77;1.40;;;;;;;;;;5030093;28;20029;-76
2022/08/02 08:45:57;;;;;;;1.90;1.45;;;;;;;;;;5025817;28;20091;-76
2022/08/02 08:48:24;;;;;;;4.45;1.58;;;;;;;;;;5028577;28;20040;-77
2022/08/02 08:50:56;;;;;;;1.60;1.50;;;;;;;;;;5027252;28;20393;-76
2022/08/02 08:53:27;;;;;;;1.67;1.58;;;;;;;;;;5034503;28;20061;-75
2022/08/02 08:55:56;;;;;;;1.75;1.30;;;;;;;;;;5025756;28;20035;-76
2022/08/02 08:58:22;;;;;;;1.70;1.45;;;;;;;;;;5035388;28;20032;-75
2022/08/02 09:00:50;;;;;;;3.03;1.50;;;;;;;;;;5030090;28;20590;-75
2022/08/02 09:03:16;;;;;;;3.38;1.60;;;;;;;;;;5028380;28;20048;-76
2022/08/02 09:05:45;;;;;;;1.73;1.63;;;;;;;;;;5027830;28;20021;-75
2022/08/02 09:08:12;;;;;;;3.63;1.50;;;;;;;;;;5035151;28;20013;-78
2022/08/02 09:10:40;;;;;;;2.33;1.40;;;;;;;;;;5030887;28;20032;-76
2022/08/02 09:13:22;;;;;;;1.50;1.40;;;;;;;;;;5028254;28;20029;-76
2022/08/02 09:15:58;;;;;;;1.10;1.10;;;;;;;;;;5028148;28;20029;-77
2022/08/02 09:18:35;;;;;;;1.88;1.40;;;;;;;;;;5031957;28;20110;-74
2022/08/02 09:21:03;;;;;;;2.08;1.48;;;;;;;;;;5030214;28;20133;-75
2022/08/02 09:23:38;;;;;;;2.35;1.65;;;;;;;;;;5031265;28;20021;-77
2022/08/02 09:26:08;;;;;;;1.92;1.50;;;;;;;;;;5022728;28;20492;-77
2022/08/02 09:28:35;;;;;;;1.92;1.40;;;;;;;;;;5034315;28;20167;-76
2022/08/02 09:31:04;;;;;;;1.48;1.38;;;;;;;;;;5028752;28;20641;-76
2022/08/02 09:33:30;;;;;;;2.20;1.92;;;;;;;;;;5031957;28;20539;-76
2022/08/02 09:36:01;;;;;;;1.60;1.50;;;;;;;;;;5027557;28;20112;-75
2022/08/02 09:38:28;;;;;;;1.50;1.40;;;;;;;;;;5033133;28;20033;-77
2022/08/02 09:40:54;;;;;;;1.48;1.40;;;;;;;;;;5030934;28;20504;-78
2022/08/02 09:43:20;;;;;;;2.25;1.42;;;;;;;;;;5023970;28;20449;-77
2022/08/02 09:45:46;;;;;;;1.55;1.45;;;;;;;;;;5035057;28;20136;-77
2022/08/02 09:48:13;;;;;;;1.52;1.33;;;;;;;;;;5032274;28;20134;-76
2022/08/02 09:50:40;;;;;;;1.60;1.50;;;;;;;;;;5032009;28;21013;-78
2022/08/02 09:53:11;;;;;;;1.67;1.45;;;;;;;;;;5036295;28;20087;-78
2022/08/02 09:55:37;;;;;;;3.83;2.10;;;;;;;;;;5030234;28;20029;-77
2022/08/02 09:58:17;;;;;;;2.30;1.45;;;;;;;;;;5032645;28;20032;-75
2022/08/02 10:00:53;;;;;;;1.60;1.50;;;;;;;;;;5024248;28;20148;-76
2022/08/02 10:03:19;;;;;;;1.98;1.50;;;;;;;;;;5030156;28;20026;-78
2022/08/02 10:06:03;;;;;;;1.58;1.48;;;;;;;;;;5035053;28;20105;-78
2022/08/02 10:08:30;;;;;;;2.05;1.60;;;;;;;;;;5029005;28;20685;-78
2022/08/02 10:11:00;;;;;;;1.98;1.67;;;;;;;;;;5027049;28;20399;-76
2022/08/02 10:13:30;;;;;;;1.45;1.35;;;;;;;;;;5035061;28;20026;-77
2022/08/02 10:16:01;;;;;;;1.65;1.50;;;;;;;;;;5031611;28;20600;-75
2022/08/02 10:18:27;;;;;;;1.75;1.50;;;;;;;;;;5030567;28;20021;-77
2022/08/02 10:20:55;;;;;;;2.03;1.70;;;;;;;;;;5036716;28;20028;-76
2022/08/02 10:23:24;;;;;;;1.48;1.38;;;;;;;;;;5036327;28;20021;-76
2022/08/02 10:25:52;;;;;;;1.40;1.30;;;;;;;;;;5030600;28;20026;-77
2022/08/02 10:28:19;;;;;;;2.63;1.52;;;;;;;;;;5030302;28;20036;-76
2022/08/02 10:30:47;;;;;;;1.58;1.48;;;;;;;;;;5035349;28;20036;-77
2022/08/02 10:33:16;;;;;;;2.92;1.65;;;;;;;;;;5036544;28;20320;-76
2022/08/02 10:35:42;;;;;;;2.20;1.90;;;;;;;;;;5032592;28;20410;-77
2022/08/02 10:38:10;;;;;;;2.50;1.95;;;;;;;;;;5032171;28;20025;-79
2022/08/02 10:40:51;;;;;;;1.67;1.50;;;;;;;;;;5036170;28;20025;-78
2022/08/02 10:43:32;;;;;;;2.83;1.70;;;;;;;;;;5031234;28;20057;-77
2022/08/02 10:46:17;;;;;;;2.58;1.63;;;;;;;;;;5026564;28;20022;-76
2022/08/02 10:49:06;;;;;;;3.15;1.60;;;;;;;;;;5027483;28;20041;-76
2022/08/02 10:51:51;;;;;;;1.88;1.70;;;;;;;;;;5033346;28;20112;-76
2022/08/02 10:54:20;;;;;;;1.80;1.70;;;;;;;;;;5032508;28;20199;-78
2022/08/02 10:56:50;;;;;;;2.03;1.60;;;;;;;;;;5033174;28;20025;-77
2022/08/02 10:59:24;;;;;;;1.67;1.50;;;;;;;;;;5032368;28;20749;-76
2022/08/02 11:01:50;;;;;;;1.60;1.50;;;;;;;;;;5031790;28;20033;-76
2022/08/02 11:04:17;;;;;;;2.00;1.80;;;;;;;;;;5033934;28;20025;-76
2022/08/02 11:07:02;;;;;;;1.70;1.60;;;;;;;;;;5031045;28;20029;-78
2022/08/02 11:09:30;;;;;;;2.60;1.60;;;;;;;;;;5025854;28;20124;-77
2022/08/02 11:12:02;;;;;;;3.45;1.67;;;;;;;;;;5032052;28;20525;-75
2022/08/02 11:14:28;;;;;;;2.38;1.73;;;;;;;;;;5035527;28;20025;-78
2022/08/02 11:16:54;;;;;;;2.20;1.80;;;;;;;;;;5032787;28;20021;-76
2022/08/02 11:19:20;;;;;;;1.95;1.75;;;;;;;;;;5033890;28;20028;-77
2022/08/02 11:22:05;;;;;;;2.65;1.75;;;;;;;;;;5035817;28;20104;-76
2022/08/02 11:24:33;;;;;;;2.65;1.70;;;;;;;;;;5030941;28;20033;-76
2022/08/02 11:27:00;;;;;;;2.10;1.90;;;;;;;;;;5034031;28;20108;-77
2022/08/02 11:29:32;;;;;;;4.25;1.85;;;;;;;;;;5030213;28;20337;-77
2022/08/02 11:31:59;;;;;;;2.47;2.00;;;;;;;;;;5031748;28;20028;-77
2022/08/02 11:34:25;;;;;;;1.80;1.70;;;;;;;;;;5030324;28;20025;-78
2022/08/02 11:36:52;;;;;;;2.80;2.10;;;;;;;;;;5031243;28;20038;-78
2022/08/02 11:39:19;;;;;;;1.88;1.70;;;;;;;;;;5034036;28;20032;-77
2022/08/02 11:41:50;;;;;;;2.72;1.80;;;;;;;;;;5032866;28;20892;-79
2022/08/02 11:44:16;;;;;;;2.10;1.73;;;;;;;;;;5033773;28;20021;-78
2022/08/02 11:46:43;;;;;;;1.70;1.60;;;;;;;;;;5032411;28;20026;-78
2022/08/02 11:49:13;;;;;;;2.08;1.70;;;;;;;;;;5033822;28;20424;-81
2022/08/02 11:51:39;;;;;;;2.42;1.90;;;;;;;;;;5031638;28;20053;-80
2022/08/02 11:54:05;;;;;;;1.70;1.60;;;;;;;;;;5034555;28;20059;-79
2022/08/02 11:56:31;;;;;;;2.33;2.10;;;;;;;;;;5028913;28;20033;-77
2022/08/02 11:59:02;;;;;;;2.65;1.83;;;;;;;;;;5029307;28;20104;-81
2022/08/02 12:01:30;;;;;;;2.20;2.08;;;;;;;;;;5035473;28;20079;-83
2022/08/02 12:03:59;;;;;;;2.80;1.80;;;;;;;;;;5033667;28;20741;-76
2022/08/02 12:06:27;;;;;;;3.85;1.90;;;;;;;;;;5031432;28;20020;-75
2022/08/02 12:08:58;;;;;;;2.72;1.90;;;;;;;;;;5032119;28;20021;-77
2022/08/02 12:11:24;;;;;;;3.20;1.60;;;;;;;;;;5034893;28;20022;-76
2022/08/02 12:13:50;;;;;;;2.20;1.80;;;;;;;;;;5031994;28;20028;-76
2022/08/02 12:19:22;;;;;;;2.33;1.90;;;;;;;;;;5033225;28;20036;-76
2022/08/02 12:21:48;;;;;;;2.63;1.92;;;;;;;;;;5033945;28;20029;-78
2022/08/02 12:24:26;;;;;;;1.80;1.60;;;;;;;;;;5035746;28;20028;-76
2022/08/02 12:26:53;;;;;;;1.95;1.80;;;;;;;;;;5032369;28;20021;-77
2022/08/02 12:29:28;;;;;;;2.33;1.77;;;;;;;;;;5026542;28;20562;-77
2022/08/02 12:31:54;;;;;;;3.83;1.83;;;;;;;;;;5032576;28;20579;-78
2022/08/02 12:34:21;;;;;;;5.55;1.90;;;;;;;;;;5031633;28;20030;-77
2022/08/02 12:37:06;;;;;;;2.10;1.90;;;;;;;;;;5035622;28;20738;-77
2022/08/02 12:39:37;;;;;;;2.10;1.70;;;;;;;;;;5033404;28;20094;-77
2022/08/02 12:42:04;;;;;;;2.67;1.80;;;;;;;;;;5027130;28;20025;-78
2022/08/02 12:44:30;;;;;;;1.80;1.70;;;;;;;;;;5032512;28;20033;-76
2022/08/02 12:47:04;;;;;;;2.20;2.00;;;;;;;;;;5031603;28;20438;-79
2022/08/02 12:49:30;;;;;;;2.00;1.90;;;;;;;;;;5034451;28;20203;-76
2022/08/02 12:51:56;;;;;;;1.80;1.70;;;;;;;;;;5032699;28;20489;-76
2022/08/02 12:54:34;;;;;;;2.60;1.85;;;;;;;;;;5036525;28;20188;-78
2022/08/02 12:57:13;;;;;;;2.80;1.90;;;;;;;;;;5031031;28;20552;-77
2022/08/02 12:59:40;;;;;;;3.28;1.90;;;;;;;;;;5034366;28;20041;-77
2022/08/02 13:02:08;;;;;;;2.05;1.70;;;;;;;;;;5025989;28;20109;-77
2022/08/02 13:04:34;;;;;;;2.10;1.80;;;;;;;;;;5032544;28;20025;-78
2022/08/02 13:07:01;;;;;;;1.70;1.60;;;;;;;;;;5030414;28;20112;-78
2022/08/02 13:09:27;;;;;;;3.78;1.70;;;;;;;;;;5024510;28;20032;-78
2022/08/02 13:11:53;;;;;;;3.72;1.88;;;;;;;;;;5033181;28;20102;-77
2022/08/02 13:14:19;;;;;;;1.95;1.83;;;;;;;;;;5033308;28;20031;-77
2022/08/02 13:16:46;;;;;;;2.00;1.80;;;;;;;;;;5032397;28;20100;-78
2022/08/02 13:19:14;;;;;;;1.83;1.70;;;;;;;;;;5031881;28;20182;-76
2022/08/02 13:21:40;;;;;;;1.70;1.60;;;;;;;;;;5036409;28;20057;-77
2022/08/02 13:24:07;;;;;;;2.00;1.80;;;;;;;;;;5033610;28;20443;-77
2022/08/02 13:26:33;;;;;;;2.10;1.90;;;;;;;;;;5033376;28;20458;-77
2022/08/02 13:28:59;;;;;;;1.85;1.73;;;;;;;;;;5034370;28;20036;-77
2022/08/02 13:31:25;;;;;;;2.35;1.80;;;;;;;;;;5030596;28;20116;-78
2022/08/02 13:33:51;;;;;;;4.55;1.80;;;;;;;;;;5031550;28;20029;-77
2022/08/02 13:36:17;;;;;;;1.80;1.70;;;;;;;;;;5033173;28;20049;-78
2022/08/02 13:38:43;;;;;;;1.88;1.67;;;;;;;;;;5034903;28;20021;-77
2022/08/02 13:41:11;;;;;;;4.07;1.83;;;;;;;;;;5031535;28;20021;-77
2022/08/02 13:43:38;;;;;;;1.77;1.67;;;;;;;;;;5034945;28;20057;-77
2022/08/02 13:46:04;;;;;;;3.20;1.90;;;;;;;;;;5035360;28;20024;-77
2022/08/02 13:48:30;;;;;;;2.22;1.73;;;;;;;;;;5036483;28;20097;-76
2022/08/02 13:50:56;;;;;;;2.10;1.80;;;;;;;;;;5032721;28;20085;-77
2022/08/02 13:53:23;;;;;;;2.15;1.95;;;;;;;;;;5032472;28;20571;-77
2022/08/02 13:55:49;;;;;;;1.90;1.80;;;;;;;;;;5033786;28;20037;-77
2022/08/02 13:58:16;;;;;;;2.20;1.92;;;;;;;;;;5037256;28;20039;-78
2022/08/02 14:00:42;;;;;;;3.22;1.90;;;;;;;;;;5029325;28;20037;-77
2022/08/02 14:03:08;;;;;;;2.13;1.80;;;;;;;;;;5030413;28;20031;-76
2022/08/02 14:05:41;;;;;;;2.10;1.90;;;;;;;;;;5031097;28;20065;-77
2022/08/02 14:08:10;;;;;;;1.92;1.83;;;;;;;;;;5036393;28;20018;-76
2022/08/02 14:10:36;;;;;;;3.28;1.88;;;;;;;;;;5029796;28;20573;-77
2022/08/02 14:13:02;;;;;;;1.70;1.60;;;;;;;;;;5036909;28;20159;-77
2022/08/02 14:15:28;;;;;;;2.80;1.90;;;;;;;;;;5034696;28;20025;-78
2022/08/02 14:17:54;;;;;;;1.88;1.67;;;;;;;;;;5038369;28;20029;-77
2022/08/02 14:20:20;;;;;;;2.00;1.80;;;;;;;;;;5032521;28;20033;-77
2022/08/02 14:22:46;;;;;;;1.70;1.60;;;;;;;;;;5038515;28;20027;-78
2022/08/02 14:25:12;;;;;;;1.90;1.80;;;;;;;;;;5034181;28;20043;-76
2022/08/02 14:27:39;;;;;;;3.28;1.95;;;;;;;;;;5036349;28;20032;-76
2022/08/02 14:30:05;;;;;;;2.10;1.92;;;;;;;;;;5030881;28;20040;-76
2022/08/02 14:32:31;;;;;;;2.30;2.10;;;;;;;;;;5034672;28;20490;-78
2022/08/02 14:34:57;;;;;;;4.57;1.80;;;;;;;;;;5033849;28;20029;-75
2022/08/02 14:37:23;;;;;;;1.80;1.70;;;;;;;;;;5028852;28;20032;-76
2022/08/02 14:39:49;;;;;;;1.83;1.70;;;;;;;;;;5035185;28;20083;-78
2022/08/02 14:42:15;;;;;;;2.00;1.60;;;;;;;;;;5030986;28;20017;-76
2022/08/02 14:44:41;;;;;;;1.77;1.60;;;;;;;;;;5038145;28;20487;-75
2022/08/02 14:47:08;;;;;;;1.48;1.38;;;;;;;;;;5035603;28;20029;-76
2022/08/02 14:49:34;;;;;;;1.60;1.50;;;;;;;;;;5033648;28;20561;-76
2022/08/02 14:52:00;;;;;;;1.70;1.60;;;;;;;;;;5033708;28;20025;-77
2022/08/02 14:54:30;;;;;;;1.58;1.48;;;;;;;;;;5034622;28;20396;-76